sensor_id;sensor_type;location;lat;lon;timestamp;pressure;altitude;pressure_sealevel;temperature;humidity
71151;BME280;59071;42.138;24.768;2022-11-20T00:01:10;99125.09;;;13.43;93.02
71151;BME280;59071;42.138;24.768;2022-11-20T00:03:36;99115.78;;;13.45;95.36
71151;BME280;59071;42.138;24.768;2022-11-20T00:06:02;99106.41;;;13.72;94.67
71151;BME280;59071;42.138;24.768;2022-11-20T00:08:28;99124.44;;;13.64;94.45
71151;BME280;59071;42.138;24.768;2022-11-20T00:10:54;99115.25;;;13.32;94.26
71151;BME280;59071;42.138;24.768;2022-11-20T00:13:19;99122.94;;;13.85;93.74
71151;BME280;59071;42.138;24.768;2022-11-20T00:15:44;99114.19;;;13.73;93.31
71151;BME280;59071;42.138;24.768;2022-11-20T00:18:10;99108.44;;;13.53;93.59
71151;BME280;59071;42.138;24.768;2022-11-20T00:20:35;99116.84;;;13.33;93.41
71151;BME280;59071;42.138;24.768;2022-11-20T00:23:01;99118.22;;;13.76;93.68
71151;BME280;59071;42.138;24.768;2022-11-20T00:25:26;99104.19;;;13.68;93.29
71151;BME280;59071;42.138;24.768;2022-11-20T00:27:51;99098.09;;;13.56;93.40
71151;BME280;59071;42.138;24.768;2022-11-20T00:30:17;99112.34;;;13.33;94.54
71151;BME280;59071;42.138;24.768;2022-11-20T00:32:43;99107.00;;;13.91;93.57
71151;BME280;59071;42.138;24.768;2022-11-20T00:35:08;99117.84;;;13.55;94.43
71151;BME280;59071;42.138;24.768;2022-11-20T00:37:33;99107.09;;;13.38;92.89
71151;BME280;59071;42.138;24.768;2022-11-20T00:40:02;99119.31;;;13.34;96.25
71151;BME280;59071;42.138;24.768;2022-11-20T00:42:27;99125.00;;;13.95;94.08
71151;BME280;59071;42.138;24.768;2022-11-20T00:44:53;99109.81;;;13.67;91.65
71151;BME280;59071;42.138;24.768;2022-11-20T00:47:18;99092.25;;;13.30;93.58
71151;BME280;59071;42.138;24.768;2022-11-20T00:49:43;99109.81;;;13.84;93.25
71151;BME280;59071;42.138;24.768;2022-11-20T00:52:09;99104.41;;;13.79;92.92
71151;BME280;59071;42.138;24.768;2022-11-20T00:54:34;99116.28;;;13.42;92.55
71151;BME280;59071;42.138;24.768;2022-11-20T00:57:00;99122.81;;;13.35;95.26
71151;BME280;59071;42.138;24.768;2022-11-20T00:59:25;99118.19;;;14.04;92.85
71151;BME280;59071;42.138;24.768;2022-11-20T01:01:51;99118.34;;;13.81;93.00
71151;BME280;59071;42.138;24.768;2022-11-20T01:04:16;99122.16;;;13.56;94.94
71151;BME280;59071;42.138;24.768;2022-11-20T01:06:41;99119.03;;;13.47;95.62
71151;BME280;59071;42.138;24.768;2022-11-20T01:09:10;99106.38;;;13.43;95.14
71151;BME280;59071;42.138;24.768;2022-11-20T01:11:38;99115.69;;;13.28;96.39
71151;BME280;59071;42.138;24.768;2022-11-20T01:14:05;99114.06;;;13.27;96.41
71151;BME280;59071;42.138;24.768;2022-11-20T01:16:36;99096.56;;;13.20;96.27
71151;BME280;59071;42.138;24.768;2022-11-20T01:19:04;99093.50;;;13.28;96.39
71151;BME280;59071;42.138;24.768;2022-11-20T01:21:32;99098.47;;;13.48;95.50
71151;BME280;59071;42.138;24.768;2022-11-20T01:23:58;99102.25;;;13.23;96.74
71151;BME280;59071;42.138;24.768;2022-11-20T01:26:29;99100.38;;;13.36;96.15
71151;BME280;59071;42.138;24.768;2022-11-20T01:28:56;99090.84;;;13.28;96.03
71151;BME280;59071;42.138;24.768;2022-11-20T01:31:24;99086.09;;;13.30;96.21
71151;BME280;59071;42.138;24.768;2022-11-20T01:33:52;99098.38;;;13.43;95.24
71151;BME280;59071;42.138;24.768;2022-11-20T01:36:19;99069.91;;;13.25;95.67
71151;BME280;59071;42.138;24.768;2022-11-20T01:38:45;99083.81;;;13.10;96.68
71151;BME280;59071;42.138;24.768;2022-11-20T01:41:13;99081.09;;;13.22;95.81
71151;BME280;59071;42.138;24.768;2022-11-20T01:43:59;99081.34;;;13.20;96.42
71151;BME280;59071;42.138;24.768;2022-11-20T01:46:24;99066.34;;;13.19;95.81
71151;BME280;59071;42.138;24.768;2022-11-20T01:49:05;99064.84;;;13.11;96.44
71151;BME280;59071;42.138;24.768;2022-11-20T01:51:38;99057.97;;;13.27;96.31
71151;BME280;59071;42.138;24.768;2022-11-20T01:54:09;99058.28;;;13.02;97.16
71151;BME280;59071;42.138;24.768;2022-11-20T01:56:38;99057.66;;;13.12;98.15
71151;BME280;59071;42.138;24.768;2022-11-20T01:59:08;99064.56;;;13.25;96.34
71151;BME280;59071;42.138;24.768;2022-11-20T02:01:35;99056.84;;;13.11;97.13
71151;BME280;59071;42.138;24.768;2022-11-20T02:04:01;99054.63;;;13.20;96.26
71151;BME280;59071;42.138;24.768;2022-11-20T02:06:42;99053.69;;;13.55;94.60
71151;BME280;59071;42.138;24.768;2022-11-20T02:09:09;99052.13;;;13.42;94.75
71151;BME280;59071;42.138;24.768;2022-11-20T02:11:34;99056.31;;;13.26;94.88
71151;BME280;59071;42.138;24.768;2022-11-20T02:14:00;99055.28;;;13.27;94.44
71151;BME280;59071;42.138;24.768;2022-11-20T02:16:29;99049.38;;;13.25;94.57
71151;BME280;59071;42.138;24.768;2022-11-20T02:18:58;99049.41;;;13.14;94.90
71151;BME280;59071;42.138;24.768;2022-11-20T02:26:39;99041.66;;;13.00;95.84
71151;BME280;59071;42.138;24.768;2022-11-20T02:29:05;99026.22;;;12.90;97.14
71151;BME280;59071;42.138;24.768;2022-11-20T02:31:37;99024.13;;;13.04;95.51
71151;BME280;59071;42.138;24.768;2022-11-20T02:34:03;99041.53;;;13.07;95.64
71151;BME280;59071;42.138;24.768;2022-11-20T02:36:32;99042.38;;;12.96;96.03
71151;BME280;59071;42.138;24.768;2022-11-20T02:38:57;99023.22;;;12.99;96.19
71151;BME280;59071;42.138;24.768;2022-11-20T02:41:31;99014.34;;;13.10;95.82
71151;BME280;59071;42.138;24.768;2022-11-20T02:43:56;99019.75;;;13.27;95.41
71151;BME280;59071;42.138;24.768;2022-11-20T02:46:22;99019.19;;;13.13;95.21
71151;BME280;59071;42.138;24.768;2022-11-20T02:48:47;99016.69;;;13.06;95.78
71151;BME280;59071;42.138;24.768;2022-11-20T02:51:13;99015.25;;;13.16;95.89
71151;BME280;59071;42.138;24.768;2022-11-20T02:53:38;99037.00;;;13.07;97.03
71151;BME280;59071;42.138;24.768;2022-11-20T02:56:04;99018.34;;;13.24;96.16
71151;BME280;59071;42.138;24.768;2022-11-20T02:58:29;99025.78;;;12.94;97.04
71151;BME280;59071;42.138;24.768;2022-11-20T03:00:55;99030.53;;;12.91;97.61
71151;BME280;59071;42.138;24.768;2022-11-20T03:03:20;99017.41;;;12.90;98.42
71151;BME280;59071;42.138;24.768;2022-11-20T03:05:45;99022.25;;;13.05;99.26
71151;BME280;59071;42.138;24.768;2022-11-20T03:08:11;99012.72;;;13.09;97.60
71151;BME280;59071;42.138;24.768;2022-11-20T03:10:36;99005.16;;;13.18;97.74
71151;BME280;59071;42.138;24.768;2022-11-20T03:13:02;99031.13;;;13.34;96.90
71151;BME280;59071;42.138;24.768;2022-11-20T03:15:27;99042.38;;;13.36;95.80
71151;BME280;59071;42.138;24.768;2022-11-20T03:17:54;99018.00;;;13.33;94.92
71151;BME280;59071;42.138;24.768;2022-11-20T03:20:20;99026.31;;;13.07;97.01
71151;BME280;59071;42.138;24.768;2022-11-20T03:22:45;99031.13;;;13.22;96.71
71151;BME280;59071;42.138;24.768;2022-11-20T03:25:11;99026.47;;;13.29;95.51
71151;BME280;59071;42.138;24.768;2022-11-20T03:27:36;99012.06;;;13.30;95.65
71151;BME280;59071;42.138;24.768;2022-11-20T03:30:02;98999.28;;;13.33;96.05
71151;BME280;59071;42.138;24.768;2022-11-20T03:32:28;99007.31;;;13.33;95.08
71151;BME280;59071;42.138;24.768;2022-11-20T03:34:53;99015.09;;;13.34;94.88
71151;BME280;59071;42.138;24.768;2022-11-20T03:37:18;99012.06;;;13.42;94.75
71151;BME280;59071;42.138;24.768;2022-11-20T03:39:44;99012.91;;;13.31;96.33
71151;BME280;59071;42.138;24.768;2022-11-20T03:42:09;98999.50;;;13.43;95.76
71151;BME280;59071;42.138;24.768;2022-11-20T03:44:53;99013.44;;;13.62;93.86
71151;BME280;59071;42.138;24.768;2022-11-20T03:47:19;99023.97;;;13.68;95.24
71151;BME280;59071;42.138;24.768;2022-11-20T03:49:44;99023.91;;;13.63;95.65
71151;BME280;59071;42.138;24.768;2022-11-20T03:52:10;99015.28;;;13.44;97.06
71151;BME280;59071;42.138;24.768;2022-11-20T03:54:35;99012.56;;;13.56;97.65
71151;BME280;59071;42.138;24.768;2022-11-20T03:57:00;99009.81;;;13.68;96.58
71151;BME280;59071;42.138;24.768;2022-11-20T03:59:26;99025.69;;;13.58;96.09
71151;BME280;59071;42.138;24.768;2022-11-20T04:01:51;99018.03;;;13.49;98.09
71151;BME280;59071;42.138;24.768;2022-11-20T04:04:17;99023.16;;;13.51;97.80
71151;BME280;59071;42.138;24.768;2022-11-20T04:06:42;99010.53;;;13.63;97.49
71151;BME280;59071;42.138;24.768;2022-11-20T04:09:07;99021.94;;;13.59;97.53
71151;BME280;59071;42.138;24.768;2022-11-20T04:11:35;99027.97;;;13.66;97.39
71151;BME280;59071;42.138;24.768;2022-11-20T04:14:04;99022.47;;;13.44;98.65
71151;BME280;59071;42.138;24.768;2022-11-20T04:16:33;99025.41;;;13.59;98.72
71151;BME280;59071;42.138;24.768;2022-11-20T04:19:01;99017.69;;;13.46;100.00
71151;BME280;59071;42.138;24.768;2022-11-20T04:21:27;99054.69;;;13.66;99.20
71151;BME280;59071;42.138;24.768;2022-11-20T04:23:54;99033.47;;;13.76;97.77
71151;BME280;59071;42.138;24.768;2022-11-20T04:26:21;99028.97;;;13.94;96.58
71151;BME280;59071;42.138;24.768;2022-11-20T04:28:46;99038.31;;;13.62;98.29
71151;BME280;59071;42.138;24.768;2022-11-20T04:31:15;99041.75;;;13.75;97.17
71151;BME280;59071;42.138;24.768;2022-11-20T04:33:41;99029.44;;;13.91;96.04
71151;BME280;59071;42.138;24.768;2022-11-20T04:36:11;99029.41;;;13.74;97.75
71151;BME280;59071;42.138;24.768;2022-11-20T04:38:37;99023.03;;;13.75;97.94
71151;BME280;59071;42.138;24.768;2022-11-20T04:41:06;99029.97;;;13.59;99.72
71151;BME280;59071;42.138;24.768;2022-11-20T04:43:32;99024.25;;;13.67;100.00
71151;BME280;59071;42.138;24.768;2022-11-20T04:45:59;99036.41;;;13.92;100.00
71151;BME280;59071;42.138;24.768;2022-11-20T04:48:29;99030.81;;;14.10;100.00
71151;BME280;59071;42.138;24.768;2022-11-20T04:50:54;99037.25;;;14.09;98.10
71151;BME280;59071;42.138;24.768;2022-11-20T04:53:21;99038.44;;;14.01;98.24
71151;BME280;59071;42.138;24.768;2022-11-20T04:55:47;99024.81;;;14.03;99.67
71151;BME280;59071;42.138;24.768;2022-11-20T04:58:13;99035.13;;;13.94;100.00
71151;BME280;59071;42.138;24.768;2022-11-20T05:00:39;99030.97;;;13.69;99.55
71151;BME280;59071;42.138;24.768;2022-11-20T05:03:04;99037.22;;;13.92;99.63
71151;BME280;59071;42.138;24.768;2022-11-20T05:05:30;99029.53;;;14.13;98.55
71151;BME280;59071;42.138;24.768;2022-11-20T05:07:57;99038.75;;;14.05;99.17
71151;BME280;59071;42.138;24.768;2022-11-20T05:10:23;99028.47;;;14.14;98.32
71151;BME280;59071;42.138;24.768;2022-11-20T05:12:48;99033.50;;;14.10;99.03
71151;BME280;59071;42.138;24.768;2022-11-20T05:15:14;99047.44;;;14.12;97.92
71151;BME280;59071;42.138;24.768;2022-11-20T05:17:39;99054.97;;;14.15;96.40
71151;BME280;59071;42.138;24.768;2022-11-20T05:20:05;99046.78;;;13.88;97.24
71151;BME280;59071;42.138;24.768;2022-11-20T05:22:31;99040.38;;;14.06;96.90
71151;BME280;59071;42.138;24.768;2022-11-20T05:24:56;99045.31;;;13.97;97.82
71151;BME280;59071;42.138;24.768;2022-11-20T05:27:22;99046.59;;;13.78;98.13
71151;BME280;59071;42.138;24.768;2022-11-20T05:29:47;99055.44;;;13.78;99.35
71151;BME280;59071;42.138;24.768;2022-11-20T05:32:12;99045.97;;;13.87;98.59
71151;BME280;59071;42.138;24.768;2022-11-20T05:34:38;99029.03;;;13.99;98.71
71151;BME280;59071;42.138;24.768;2022-11-20T05:37:03;99032.50;;;14.16;98.92
71151;BME280;59071;42.138;24.768;2022-11-20T05:39:28;99043.16;;;14.28;97.41
71151;BME280;59071;42.138;24.768;2022-11-20T05:41:54;99040.13;;;14.41;95.08
71151;BME280;59071;42.138;24.768;2022-11-20T05:44:38;99038.59;;;14.28;95.77
71151;BME280;59071;42.138;24.768;2022-11-20T05:47:04;99018.41;;;14.38;96.65
71151;BME280;59071;42.138;24.768;2022-11-20T05:49:29;99031.13;;;14.47;95.08
71151;BME280;59071;42.138;24.768;2022-11-20T05:51:55;99041.59;;;14.66;93.73
71151;BME280;59071;42.138;24.768;2022-11-20T05:54:20;99076.16;;;14.17;95.34
71151;BME280;59071;42.138;24.768;2022-11-20T05:56:45;99044.38;;;14.03;96.46
71151;BME280;59071;42.138;24.768;2022-11-20T05:59:11;99046.28;;;13.91;96.92
71151;BME280;59071;42.138;24.768;2022-11-20T06:01:36;99053.28;;;14.09;97.39
71151;BME280;59071;42.138;24.768;2022-11-20T06:04:02;99040.84;;;14.03;96.07
71151;BME280;59071;42.138;24.768;2022-11-20T06:06:27;99059.78;;;14.30;95.02
71151;BME280;59071;42.138;24.768;2022-11-20T06:08:54;99036.06;;;14.22;94.10
71151;BME280;59071;42.138;24.768;2022-11-20T06:11:20;99048.97;;;14.08;96.51
71151;BME280;59071;42.138;24.768;2022-11-20T06:13:45;99076.38;;;14.15;94.72
71151;BME280;59071;42.138;24.768;2022-11-20T06:16:13;99062.25;;;14.03;95.51
71151;BME280;59071;42.138;24.768;2022-11-20T06:18:38;99033.91;;;14.02;96.44
71151;BME280;59071;42.138;24.768;2022-11-20T06:21:07;99059.03;;;14.18;96.47
71151;BME280;59071;42.138;24.768;2022-11-20T06:23:34;99042.88;;;14.30;95.60
71151;BME280;59071;42.138;24.768;2022-11-20T06:26:04;99066.25;;;14.17;95.91
71151;BME280;59071;42.138;24.768;2022-11-20T06:28:30;99050.50;;;14.55;94.38
71151;BME280;59071;42.138;24.768;2022-11-20T06:30:56;99092.59;;;14.42;94.58
71151;BME280;59071;42.138;24.768;2022-11-20T06:33:21;99088.78;;;14.55;94.07
71151;BME280;59071;42.138;24.768;2022-11-20T06:35:47;99075.25;;;14.62;94.09
71151;BME280;59071;42.138;24.768;2022-11-20T06:38:12;99064.13;;;14.53;93.88
71151;BME280;59071;42.138;24.768;2022-11-20T06:40:42;99078.56;;;14.69;93.17
71151;BME280;59071;42.138;24.768;2022-11-20T06:43:09;99071.25;;;14.81;92.24
71151;BME280;59071;42.138;24.768;2022-11-20T06:45:35;99073.28;;;14.74;92.90
71151;BME280;59071;42.138;24.768;2022-11-20T06:48:01;99090.09;;;14.53;93.60
71151;BME280;59071;42.138;24.768;2022-11-20T06:50:26;99076.88;;;14.63;93.40
71151;BME280;59071;42.138;24.768;2022-11-20T06:52:51;99087.47;;;14.75;93.34
71151;BME280;59071;42.138;24.768;2022-11-20T06:55:17;99076.16;;;14.90;91.67
71151;BME280;59071;42.138;24.768;2022-11-20T06:57:42;99071.59;;;14.68;93.32
71151;BME280;59071;42.138;24.768;2022-11-20T07:00:08;99088.44;;;14.85;92.75
71151;BME280;59071;42.138;24.768;2022-11-20T07:02:34;99087.91;;;14.89;92.08
71151;BME280;59071;42.138;24.768;2022-11-20T07:04:59;99087.03;;;14.83;92.11
71151;BME280;59071;42.138;24.768;2022-11-20T07:07:24;99082.19;;;15.02;91.44
71151;BME280;59071;42.138;24.768;2022-11-20T07:09:50;99077.66;;;15.24;90.36
71151;BME280;59071;42.138;24.768;2022-11-20T07:12:16;99077.84;;;15.40;89.12
71151;BME280;59071;42.138;24.768;2022-11-20T07:14:41;99081.59;;;15.39;88.99
71151;BME280;59071;42.138;24.768;2022-11-20T07:17:07;99103.97;;;15.28;89.45
71151;BME280;59071;42.138;24.768;2022-11-20T07:19:32;99092.38;;;15.22;89.65
71151;BME280;59071;42.138;24.768;2022-11-20T07:21:57;99098.00;;;15.42;89.08
71151;BME280;59071;42.138;24.768;2022-11-20T07:24:23;99077.72;;;15.30;88.42
71151;BME280;59071;42.138;24.768;2022-11-20T07:26:48;99074.09;;;15.19;89.78
71151;BME280;59071;42.138;24.768;2022-11-20T07:29:16;99083.53;;;15.21;89.35
71151;BME280;59071;42.138;24.768;2022-11-20T07:31:43;99099.09;;;15.24;89.48
71151;BME280;59071;42.138;24.768;2022-11-20T07:34:09;99097.91;;;15.15;88.67
71151;BME280;59071;42.138;24.768;2022-11-20T07:36:34;99102.59;;;15.47;88.17
71151;BME280;59071;42.138;24.768;2022-11-20T07:39:00;99108.34;;;15.61;87.45
71151;BME280;59071;42.138;24.768;2022-11-20T07:41:25;99116.03;;;15.74;86.04
71151;BME280;59071;42.138;24.768;2022-11-20T07:43:51;99124.81;;;15.70;86.87
71151;BME280;59071;42.138;24.768;2022-11-20T07:46:16;99119.28;;;16.03;85.74
71151;BME280;59071;42.138;24.768;2022-11-20T07:48:42;99109.47;;;15.87;86.34
71151;BME280;59071;42.138;24.768;2022-11-20T07:51:07;99110.19;;;15.77;85.25
71151;BME280;59071;42.138;24.768;2022-11-20T07:53:33;99113.56;;;15.95;85.13
71151;BME280;59071;42.138;24.768;2022-11-20T07:56:02;99099.84;;;15.91;85.63
71151;BME280;59071;42.138;24.768;2022-11-20T07:58:30;99109.91;;;16.06;85.04
71151;BME280;59071;42.138;24.768;2022-11-20T08:01:02;99105.91;;;16.09;85.06
71151;BME280;59071;42.138;24.768;2022-11-20T08:03:27;99102.38;;;16.03;85.40
71151;BME280;59071;42.138;24.768;2022-11-20T08:05:52;99097.69;;;15.88;85.84
71151;BME280;59071;42.138;24.768;2022-11-20T08:08:18;99098.84;;;15.97;85.38
71151;BME280;59071;42.138;24.768;2022-11-20T08:10:43;99108.06;;;15.79;86.52
71151;BME280;59071;42.138;24.768;2022-11-20T08:13:09;99105.75;;;15.66;87.41
71151;BME280;59071;42.138;24.768;2022-11-20T08:15:52;99103.69;;;16.00;85.02
71151;BME280;59071;42.138;24.768;2022-11-20T08:18:18;99102.53;;;15.91;84.93
71151;BME280;59071;42.138;24.768;2022-11-20T08:20:44;99088.00;;;15.87;85.34
71151;BME280;59071;42.138;24.768;2022-11-20T08:23:09;99092.16;;;16.00;84.10
71151;BME280;59071;42.138;24.768;2022-11-20T08:25:37;99089.53;;;16.10;83.72
71151;BME280;59071;42.138;24.768;2022-11-20T08:28:05;99102.94;;;16.37;84.59
71151;BME280;59071;42.138;24.768;2022-11-20T08:30:31;99113.59;;;16.65;82.77
71151;BME280;59071;42.138;24.768;2022-11-20T08:33:04;99108.81;;;16.72;83.23
71151;BME280;59071;42.138;24.768;2022-11-20T08:35:36;99110.13;;;17.12;81.46
71151;BME280;59071;42.138;24.768;2022-11-20T08:38:04;99090.50;;;17.11;80.07
71151;BME280;59071;42.138;24.768;2022-11-20T08:40:30;99074.91;;;17.08;80.35
71151;BME280;59071;42.138;24.768;2022-11-20T08:42:56;99065.84;;;17.30;78.76
71151;BME280;59071;42.138;24.768;2022-11-20T08:45:21;99077.25;;;17.83;79.34
71151;BME280;59071;42.138;24.768;2022-11-20T08:47:47;99081.59;;;18.41;76.09
71151;BME280;59071;42.138;24.768;2022-11-20T08:50:14;99081.00;;;18.95;71.57
71151;BME280;59071;42.138;24.768;2022-11-20T08:52:41;99070.78;;;18.82;71.10
71151;BME280;59071;42.138;24.768;2022-11-20T08:55:07;99078.50;;;19.09;70.35
71151;BME280;59071;42.138;24.768;2022-11-20T08:57:34;99079.47;;;19.33;70.58
71151;BME280;59071;42.138;24.768;2022-11-20T09:00:00;99078.78;;;19.72;67.83
71151;BME280;59071;42.138;24.768;2022-11-20T09:02:25;99069.91;;;19.57;67.90
71151;BME280;59071;42.138;24.768;2022-11-20T09:04:51;99079.56;;;19.68;66.92
71151;BME280;59071;42.138;24.768;2022-11-20T09:07:16;99072.88;;;20.05;66.08
71151;BME280;59071;42.138;24.768;2022-11-20T09:09:42;99066.59;;;19.70;65.89
71151;BME280;59071;42.138;24.768;2022-11-20T09:12:07;99064.72;;;19.70;66.68
71151;BME280;59071;42.138;24.768;2022-11-20T09:14:33;99063.69;;;20.01;65.51
71151;BME280;59071;42.138;24.768;2022-11-20T09:16:59;99077.16;;;20.94;64.18
71151;BME280;59071;42.138;24.768;2022-11-20T09:19:24;99063.41;;;21.14;61.49
71151;BME280;59071;42.138;24.768;2022-11-20T09:21:50;99057.47;;;21.12;59.71
71151;BME280;59071;42.138;24.768;2022-11-20T09:24:16;99050.88;;;20.99;60.16
71151;BME280;59071;42.138;24.768;2022-11-20T09:26:42;99051.09;;;20.79;61.33
71151;BME280;59071;42.138;24.768;2022-11-20T09:29:07;99048.00;;;20.66;63.56
71151;BME280;59071;42.138;24.768;2022-11-20T09:31:32;99047.19;;;21.14;61.55
71151;BME280;59071;42.138;24.768;2022-11-20T09:33:58;99037.41;;;21.37;59.95
71151;BME280;59071;42.138;24.768;2022-11-20T09:36:23;99035.38;;;21.05;61.75
71151;BME280;59071;42.138;24.768;2022-11-20T09:38:49;99023.09;;;21.56;61.23
71151;BME280;59071;42.138;24.768;2022-11-20T09:44:48;99010.13;;;21.53;60.76
71151;BME280;59071;42.138;24.768;2022-11-20T09:50:38;98995.41;;;22.11;59.44
71151;BME280;59071;42.138;24.768;2022-11-20T09:55:52;98988.03;;;22.44;58.61
71151;BME280;59071;42.138;24.768;2022-11-20T10:00:56;98989.66;;;22.87;56.56
71151;BME280;59071;42.138;24.768;2022-11-20T10:03:39;98985.53;;;22.89;56.14
71151;BME280;59071;42.138;24.768;2022-11-20T10:06:13;98989.25;;;23.07;55.78
71151;BME280;59071;42.138;24.768;2022-11-20T10:14:42;98999.09;;;22.89;56.76
71151;BME280;59071;42.138;24.768;2022-11-20T10:20:15;98989.22;;;22.24;58.02
71151;BME280;59071;42.138;24.768;2022-11-20T10:30:57;98973.06;;;22.88;57.87
71151;BME280;59071;42.138;24.768;2022-11-20T10:33:25;98966.84;;;23.38;56.04
71151;BME280;59071;42.138;24.768;2022-11-20T10:35:59;98967.72;;;23.11;57.08
71151;BME280;59071;42.138;24.768;2022-11-20T10:38:54;98966.28;;;23.27;56.83
71151;BME280;59071;42.138;24.768;2022-11-20T10:41:27;98966.22;;;22.21;58.98
71151;BME280;59071;42.138;24.768;2022-11-20T10:44:04;98959.41;;;21.77;60.72
71151;BME280;59071;42.138;24.768;2022-11-20T10:46:40;98949.81;;;21.99;60.20
71151;BME280;59071;42.138;24.768;2022-11-20T10:49:19;98945.50;;;21.98;60.04
71151;BME280;59071;42.138;24.768;2022-11-20T10:57:14;98947.88;;;22.46;59.39
71151;BME280;59071;42.138;24.768;2022-11-20T11:02:31;98944.59;;;22.99;58.82
71151;BME280;59071;42.138;24.768;2022-11-20T11:04:58;98939.13;;;22.77;57.84
71151;BME280;59071;42.138;24.768;2022-11-20T11:07:38;98935.84;;;22.66;58.78
71151;BME280;59071;42.138;24.768;2022-11-20T11:10:20;98917.75;;;22.61;58.35
71151;BME280;59071;42.138;24.768;2022-11-20T11:12:46;98930.00;;;22.31;59.47
71151;BME280;59071;42.138;24.768;2022-11-20T11:15:39;98931.56;;;21.91;62.10
71151;BME280;59071;42.138;24.768;2022-11-20T11:18:07;98914.38;;;22.42;59.77
71151;BME280;59071;42.138;24.768;2022-11-20T11:20:33;98898.19;;;21.62;61.71
71151;BME280;59071;42.138;24.768;2022-11-20T11:22:59;98902.16;;;21.32;63.57
71151;BME280;59071;42.138;24.768;2022-11-20T11:25:33;98904.97;;;21.93;61.49
71151;BME280;59071;42.138;24.768;2022-11-20T11:28:20;98902.25;;;21.79;61.62
71151;BME280;59071;42.138;24.768;2022-11-20T11:30:47;98891.63;;;21.82;61.54
71151;BME280;59071;42.138;24.768;2022-11-20T11:33:21;98894.06;;;22.12;59.90
71151;BME280;59071;42.138;24.768;2022-11-20T11:40:56;98893.34;;;22.06;60.00
71151;BME280;59071;42.138;24.768;2022-11-20T11:43:26;98901.22;;;21.42;61.42
71151;BME280;59071;42.138;24.768;2022-11-20T11:46:33;98905.91;;;21.55;61.56
71151;BME280;59071;42.138;24.768;2022-11-20T11:54:32;98912.34;;;21.40;62.49
71151;BME280;59071;42.138;24.768;2022-11-20T11:57:01;98906.66;;;21.75;60.70
71151;BME280;59071;42.138;24.768;2022-11-20T12:00:34;98909.72;;;21.16;62.83
71151;BME280;59071;42.138;24.768;2022-11-20T12:03:09;98908.66;;;21.69;62.07
71151;BME280;59071;42.138;24.768;2022-11-20T12:05:44;98904.31;;;21.68;61.05
71151;BME280;59071;42.138;24.768;2022-11-20T12:08:23;98898.41;;;20.95;64.46
71151;BME280;59071;42.138;24.768;2022-11-20T12:11:14;98892.19;;;21.65;62.35
71151;BME280;59071;42.138;24.768;2022-11-20T12:14:04;98898.31;;;21.38;62.22
71151;BME280;59071;42.138;24.768;2022-11-20T12:16:36;98890.34;;;21.94;60.44
71151;BME280;59071;42.138;24.768;2022-11-20T12:19:08;98887.63;;;22.08;60.34
71151;BME280;59071;42.138;24.768;2022-11-20T12:21:45;98884.31;;;21.97;60.33
71151;BME280;59071;42.138;24.768;2022-11-20T12:30:18;98884.81;;;21.19;62.99
71151;BME280;59071;42.138;24.768;2022-11-20T12:33:18;98885.88;;;21.70;60.34
71151;BME280;59071;42.138;24.768;2022-11-20T12:41:01;98876.59;;;22.04;57.44
71151;BME280;59071;42.138;24.768;2022-11-20T12:43:57;98867.41;;;20.87;60.47
71151;BME280;59071;42.138;24.768;2022-11-20T12:47:11;98860.06;;;21.59;56.98
71151;BME280;59071;42.138;24.768;2022-11-20T12:52:31;98863.13;;;21.38;56.44
71151;BME280;59071;42.138;24.768;2022-11-20T12:55:11;98866.66;;;22.13;54.51
71151;BME280;59071;42.138;24.768;2022-11-20T12:57:50;98869.56;;;21.89;54.31
71151;BME280;59071;42.138;24.768;2022-11-20T13:00:20;98873.25;;;21.79;53.99
71151;BME280;59071;42.138;24.768;2022-11-20T13:08:24;98874.81;;;22.27;51.54
71151;BME280;59071;42.138;24.768;2022-11-20T13:11:05;98867.47;;;22.14;48.82
71151;BME280;59071;42.138;24.768;2022-11-20T13:14:03;98882.06;;;21.71;48.65
71151;BME280;59071;42.138;24.768;2022-11-20T13:16:47;98882.16;;;22.27;47.19
71151;BME280;59071;42.138;24.768;2022-11-20T13:19:16;98879.50;;;21.94;47.42
71151;BME280;59071;42.138;24.768;2022-11-20T13:21:44;98886.38;;;21.72;48.21
71151;BME280;59071;42.138;24.768;2022-11-20T13:26:45;98883.22;;;21.84;52.68
71151;BME280;59071;42.138;24.768;2022-11-20T13:29:18;98888.63;;;21.98;49.33
71151;BME280;59071;42.138;24.768;2022-11-20T13:31:45;98904.59;;;22.13;47.87
71151;BME280;59071;42.138;24.768;2022-11-20T13:34:27;98891.25;;;22.44;46.18
71151;BME280;59071;42.138;24.768;2022-11-20T13:36:55;98910.41;;;22.76;44.99
71151;BME280;59071;42.138;24.768;2022-11-20T13:39:32;98907.56;;;22.95;44.89
71151;BME280;59071;42.138;24.768;2022-11-20T13:42:19;98909.88;;;22.88;44.31
71151;BME280;59071;42.138;24.768;2022-11-20T13:44:54;98918.13;;;22.82;44.40
71151;BME280;59071;42.138;24.768;2022-11-20T13:47:22;98914.22;;;22.75;44.32
71151;BME280;59071;42.138;24.768;2022-11-20T13:49:48;98923.78;;;22.31;45.14
71151;BME280;59071;42.138;24.768;2022-11-20T13:52:30;98926.19;;;22.46;44.71
71151;BME280;59071;42.138;24.768;2022-11-20T13:56:05;98924.41;;;22.28;44.72
71151;BME280;59071;42.138;24.768;2022-11-20T14:00:29;98941.97;;;21.83;45.40
71151;BME280;59071;42.138;24.768;2022-11-20T14:05:38;98964.41;;;21.13;49.08
71151;BME280;59071;42.138;24.768;2022-11-20T14:08:06;98969.94;;;20.84;51.83
71151;BME280;59071;42.138;24.768;2022-11-20T14:10:37;98954.16;;;20.91;52.89
71151;BME280;59071;42.138;24.768;2022-11-20T14:13:16;98962.44;;;20.27;54.02
71151;BME280;59071;42.138;24.768;2022-11-20T14:15:42;98954.56;;;20.31;53.88
71151;BME280;59071;42.138;24.768;2022-11-20T14:18:14;98952.22;;;19.95;54.20
71151;BME280;59071;42.138;24.768;2022-11-20T14:20:40;98954.66;;;19.97;53.60